createdAt,value
2022-08-02T00:01:07.366Z,2.90
2022-08-02T00:03:37.973Z,3.03
2022-08-02T00:06:07.419Z,2.58
2022-08-02T00:08:35.943Z,2.55
2022-08-02T00:11:05.632Z,3.00
2022-08-02T00:13:37.114Z,2.85
2022-08-02T00:16:06.652Z,2.53
2022-08-02T00:18:35.397Z,2.30
2022-08-02T00:21:03.552Z,2.55
2022-08-02T00:23:32.049Z,2.53
2022-08-02T00:26:00.267Z,2.58
2022-08-02T00:28:28.967Z,2.60
2022-08-02T00:30:58.853Z,3.00
2022-08-02T00:34:26.777Z,3.40
2022-08-02T00:36:16.365Z,2.55
2022-08-02T00:38:44.718Z,2.20
2022-08-02T00:41:15.127Z,2.83
2022-08-02T00:43:43.290Z,2.45
2022-08-02T00:46:13.228Z,2.30
2022-08-02T00:48:43.002Z,2.25
2022-08-02T00:51:11.787Z,2.40
2022-08-02T00:53:39.925Z,2.05
2022-08-02T00:56:08.222Z,2.83
2022-08-02T00:58:36.211Z,1.95
2022-08-02T01:01:04.379Z,2.28
2022-08-02T01:03:33.767Z,2.42
2022-08-02T01:06:16.917Z,2.40
2022-08-02T01:08:44.962Z,2.15
2022-08-02T01:11:13.011Z,2.28
2022-08-02T01:13:41.197Z,2.60
2022-08-02T01:16:15.422Z,2.40
2022-08-02T01:18:48.863Z,2.00
2022-08-02T01:24:08.492Z,1.88
2022-08-02T01:26:43.893Z,1.85
2022-08-02T01:29:18.058Z,3.05
2022-08-02T01:31:58.422Z,1.92
2022-08-02T01:34:31.889Z,2.08
2022-08-02T01:39:35.106Z,2.25
2022-08-02T01:42:05.634Z,1.80
2022-08-02T01:44:37.807Z,2.00
2022-08-02T01:47:09.113Z,1.90
2022-08-02T01:49:39.637Z,2.47
2022-08-02T01:52:22.530Z,2.05
2022-08-02T01:54:53.240Z,2.55
2022-08-02T01:57:23.958Z,2.80
2022-08-02T01:59:57.001Z,2.55
2022-08-02T02:02:28.880Z,2.60
2022-08-02T02:05:01.754Z,2.35
2022-08-02T02:07:34.208Z,2.05
2022-08-02T02:10:04.813Z,2.10
2022-08-02T02:12:35.889Z,2.30
2022-08-02T02:15:06.927Z,2.17
2022-08-02T02:17:57.216Z,2.55
2022-08-02T02:20:24.833Z,2.53
2022-08-02T02:22:53.475Z,3.15
2022-08-02T02:25:32.936Z,3.05
2022-08-02T02:28:09.510Z,3.15
2022-08-02T02:30:42.961Z,2.22
2022-08-02T02:33:13.426Z,2.33
2022-08-02T02:35:43.214Z,2.80
2022-08-02T02:38:15.434Z,2.40
2022-08-02T02:40:46.027Z,2.30
2022-08-02T02:43:15.340Z,2.72
2022-08-02T02:45:46.078Z,2.35
2022-08-02T02:48:16.099Z,2.40
2022-08-02T02:50:44.925Z,2.28
2022-08-02T02:53:14.453Z,2.40
2022-08-02T02:56:02.264Z,2.22
2022-08-02T02:58:32.918Z,2.17
2022-08-02T03:01:21.096Z,2.30
2022-08-02T03:04:12.581Z,2.05
2022-08-02T03:06:41.702Z,2.40
2022-08-02T03:09:11.676Z,2.80
2022-08-02T03:11:42.097Z,2.13
2022-08-02T03:14:12.860Z,2.30
2022-08-02T03:16:47.856Z,2.30
2022-08-02T03:19:17.792Z,2.33
2022-08-02T03:21:48.770Z,2.47
2022-08-02T03:24:28.338Z,2.30
2022-08-02T03:26:56.825Z,2.55
2022-08-02T03:29:24.981Z,2.22
2022-08-02T03:31:54.770Z,2.50
2022-08-02T03:34:22.929Z,2.47
2022-08-02T03:36:56.586Z,2.47
2022-08-02T03:39:26.339Z,2.30
2022-08-02T03:41:55.832Z,2.25
2022-08-02T03:44:25.309Z,2.13
2022-08-02T03:46:55.892Z,1.90
2022-08-02T03:49:25.045Z,2.22
2022-08-02T03:51:53.821Z,2.25
2022-08-02T03:54:23.133Z,2.33
2022-08-02T03:57:03.158Z,2.70
2022-08-02T03:59:41.297Z,2.00
2022-08-02T04:02:11.214Z,2.65
2022-08-02T04:04:39.899Z,2.53
2022-08-02T04:07:08.265Z,2.28
2022-08-02T04:09:36.186Z,2.95
2022-08-02T04:12:04.653Z,2.42
2022-08-02T04:14:33.292Z,2.72
2022-08-02T04:17:09.357Z,3.15
2022-08-02T04:19:43.518Z,2.92
2022-08-02T04:22:17.488Z,3.10
2022-08-02T04:24:49.928Z,2.72
2022-08-02T04:27:49.911Z,3.08
2022-08-02T04:30:08.578Z,2.90
2022-08-02T04:32:37.044Z,4.05
2022-08-02T04:35:22.967Z,2.90
2022-08-02T04:38:08.923Z,3.20
2022-08-02T04:40:39.912Z,2.83
2022-08-02T04:43:08.785Z,2.42
2022-08-02T04:45:37.325Z,3.72
2022-08-02T04:48:09.644Z,2.92
2022-08-02T04:50:42.523Z,2.92
2022-08-02T04:53:13.637Z,3.22
2022-08-02T04:55:46.935Z,3.42
2022-08-02T04:58:39.488Z,3.50
2022-08-02T05:01:09.906Z,3.47
2022-08-02T05:03:40.725Z,3.40
2022-08-02T05:06:19.168Z,3.30
2022-08-02T05:08:52.306Z,3.75
2022-08-02T05:11:34.290Z,3.42
2022-08-02T05:14:07.282Z,3.53
2022-08-02T05:16:39.171Z,3.40
2022-08-02T05:19:10.311Z,3.17
2022-08-02T05:21:43.607Z,3.13
2022-08-02T05:24:12.485Z,2.95
2022-08-02T05:26:42.706Z,3.45
2022-08-02T05:29:10.905Z,3.33
2022-08-02T05:31:38.888Z,3.45
2022-08-02T05:34:11.485Z,2.70
2022-08-02T05:36:42.318Z,3.00
2022-08-02T05:39:11.599Z,2.47
2022-08-02T05:41:46.760Z,2.45
2022-08-02T05:44:14.960Z,2.83
2022-08-02T05:46:42.858Z,2.42
2022-08-02T05:49:10.872Z,2.65
2022-08-02T05:51:44.016Z,2.90
2022-08-02T05:54:19.015Z,2.90
2022-08-02T05:56:52.701Z,2.83
2022-08-02T05:59:28.974Z,2.60
2022-08-02T06:01:59.318Z,2.97
2022-08-02T06:04:34.265Z,2.83
2022-08-02T06:07:07.464Z,3.08
2022-08-02T06:09:38.085Z,2.70
2022-08-02T06:12:09.705Z,2.90
2022-08-02T06:14:38.590Z,2.67
2022-08-02T06:17:06.773Z,3.17
2022-08-02T06:19:51.839Z,2.30
2022-08-02T06:22:35.918Z,2.13
2022-08-02T06:25:06.222Z,2.92
2022-08-02T06:27:36.090Z,2.10
2022-08-02T06:30:06.968Z,4.30
2022-08-02T06:32:35.749Z,6.47
2022-08-02T06:35:05.587Z,9.20
2022-08-02T06:37:42.465Z,10.95
2022-08-02T06:40:16.027Z,13.38
2022-08-02T06:42:50.353Z,10.45
2022-08-02T06:45:18.951Z,12.27
2022-08-02T06:47:47.151Z,12.48
2022-08-02T06:50:15.152Z,8.70
2022-08-02T06:52:44.485Z,8.48
2022-08-02T06:55:12.528Z,9.85
2022-08-02T06:57:40.494Z,9.05
2022-08-02T07:00:09.865Z,9.23
2022-08-02T07:02:39.668Z,7.38
2022-08-02T07:05:09.096Z,7.25
2022-08-02T07:07:37.215Z,6.80
2022-08-02T07:10:07.236Z,5.07
2022-08-02T07:12:36.054Z,5.35
2022-08-02T07:15:07.132Z,5.18
2022-08-02T07:17:35.506Z,7.03
2022-08-02T07:20:04.210Z,4.43
2022-08-02T07:22:32.225Z,6.47
2022-08-02T07:25:01.162Z,4.85
2022-08-02T07:27:30.538Z,3.30
2022-08-02T07:29:58.668Z,3.08
2022-08-02T07:32:31.122Z,3.13
2022-08-02T07:35:06.861Z,3.53
2022-08-02T07:37:54.699Z,5.68
2022-08-02T07:40:29.234Z,8.85
2022-08-02T07:43:04.117Z,9.18
2022-08-02T07:45:45.524Z,5.10
2022-08-02T07:48:26.984Z,1.77
2022-08-02T07:50:55.999Z,2.00
2022-08-02T07:53:50.054Z,3.33
2022-08-02T07:56:17.359Z,3.25
2022-08-02T07:58:49.826Z,3.75
2022-08-02T08:01:21.793Z,7.75
2022-08-02T08:03:53.718Z,7.97
2022-08-02T08:06:28.670Z,7.63
2022-08-02T08:08:59.851Z,10.10
2022-08-02T08:11:30.806Z,9.55
2022-08-02T08:14:03.655Z,3.08
2022-08-02T08:16:35.933Z,6.10
2022-08-02T08:19:05.908Z,1.85
2022-08-02T08:21:36.779Z,1.38
2022-08-02T08:24:09.138Z,5.00
2022-08-02T08:26:40.689Z,2.28
2022-08-02T08:29:10.791Z,3.03
2022-08-02T08:31:39.208Z,2.30
2022-08-02T08:34:07.419Z,3.45
2022-08-02T08:36:35.354Z,6.18
2022-08-02T08:39:03.688Z,6.93
2022-08-02T08:41:31.773Z,7.20
2022-08-02T08:43:59.988Z,2.03
2022-08-02T08:46:31.483Z,1.52
2022-08-02T08:49:01.520Z,1.42
2022-08-02T08:51:32.733Z,3.47
2022-08-02T08:54:04.853Z,2.45
2022-08-02T08:56:36.113Z,1.70
2022-08-02T08:59:05.613Z,1.88
2022-08-02T09:01:49.363Z,2.05
2022-08-02T09:04:18.997Z,1.20
2022-08-02T09:06:47.049Z,1.75
2022-08-02T09:09:15.015Z,1.00
2022-08-02T09:11:43.114Z,1.25
2022-08-02T09:14:11.762Z,0.85
2022-08-02T09:16:42.524Z,1.30
2022-08-02T09:19:21.939Z,1.30
2022-08-02T09:21:51.269Z,1.45
2022-08-02T09:24:20.672Z,2.40
2022-08-02T09:26:49.541Z,1.73
2022-08-02T09:29:22.401Z,1.38
2022-08-02T09:31:52.073Z,1.40
2022-08-02T09:34:20.421Z,1.85
2022-08-02T09:36:54.395Z,1.67
2022-08-02T09:39:23.830Z,1.48
2022-08-02T09:41:52.012Z,1.70
2022-08-02T09:44:20.620Z,1.65
2022-08-02T09:46:48.595Z,1.45
2022-08-02T09:49:20.122Z,1.50
2022-08-02T09:51:51.661Z,1.48
2022-08-02T09:54:21.581Z,1.40
2022-08-02T09:56:51.140Z,1.42
2022-08-02T09:59:20.446Z,1.30
2022-08-02T10:01:58.810Z,1.45
2022-08-02T10:04:34.493Z,1.67
2022-08-02T10:07:21.723Z,1.80
2022-08-02T10:09:51.609Z,1.60
2022-08-02T10:12:22.213Z,1.45
2022-08-02T10:14:51.883Z,1.70
2022-08-02T10:17:20.355Z,1.50
2022-08-02T10:20:02.961Z,1.83
2022-08-02T10:22:34.736Z,1.80
2022-08-02T10:25:04.594Z,2.42
2022-08-02T10:27:49.268Z,1.88
2022-08-02T10:30:25.875Z,2.67
2022-08-02T10:33:00.401Z,2.08
2022-08-02T10:35:37.827Z,2.88
2022-08-02T10:38:12.726Z,2.40
2022-08-02T10:40:51.509Z,2.30
2022-08-02T10:43:45.064Z,1.95
2022-08-02T10:46:33.743Z,1.92
2022-08-02T10:49:38.196Z,2.17
2022-08-02T10:52:15.540Z,2.22
2022-08-02T10:54:57.728Z,1.88
2022-08-02T10:57:30.182Z,2.78
2022-08-02T11:00:04.219Z,2.10
2022-08-02T11:02:46.643Z,2.42
2022-08-02T11:05:19.035Z,2.35
2022-08-02T11:07:53.199Z,2.15
2022-08-02T11:10:39.371Z,2.50
2022-08-02T11:13:13.175Z,2.55
2022-08-02T11:15:59.690Z,2.17
2022-08-02T11:19:06.968Z,2.42
2022-08-02T11:21:40.455Z,2.17
2022-08-02T11:24:31.002Z,2.75
2022-08-02T11:27:05.354Z,3.10
2022-08-02T11:29:38.538Z,2.70
2022-08-02T11:32:07.733Z,2.72
2022-08-02T11:34:38.515Z,2.80
2022-08-02T11:37:08.453Z,2.20
2022-08-02T11:39:39.691Z,2.65
2022-08-02T11:42:08.727Z,2.75
2022-08-02T11:44:44.306Z,2.60
2022-08-02T11:47:15.591Z,3.30
2022-08-02T11:49:46.091Z,2.72
2022-08-02T11:52:18.102Z,3.45
2022-08-02T11:54:52.305Z,1.92
2022-08-02T11:57:24.962Z,3.03
2022-08-02T11:59:57.205Z,2.20
2022-08-02T12:02:30.578Z,2.40
2022-08-02T12:05:01.152Z,2.78
2022-08-02T12:07:36.215Z,10.57
2022-08-02T12:10:11.778Z,2.97
2022-08-02T12:15:32.058Z,2.60
2022-08-02T12:18:20.637Z,5.18
2022-08-02T12:20:50.575Z,2.60
2022-08-02T12:23:18.979Z,3.38
2022-08-02T12:26:03.542Z,3.28
2022-08-02T12:28:39.198Z,3.10
2022-08-02T12:31:11.547Z,3.38
2022-08-02T12:33:49.032Z,3.72
2022-08-02T12:36:18.675Z,4.32
2022-08-02T12:38:53.393Z,5.35
2022-08-02T12:41:31.962Z,5.47
2022-08-02T12:44:01.006Z,3.92
2022-08-02T12:46:29.216Z,3.75
2022-08-02T12:49:16.562Z,3.58
2022-08-02T12:51:56.531Z,2.40
2022-08-02T12:54:31.361Z,2.97
2022-08-02T12:57:11.784Z,3.40
2022-08-02T12:59:42.387Z,3.40
2022-08-02T13:02:12.917Z,2.92
2022-08-02T13:04:41.720Z,3.50
2022-08-02T13:07:20.602Z,3.90
2022-08-02T13:09:50.893Z,3.50
2022-08-02T13:12:38.227Z,4.17
2022-08-02T13:15:12.417Z,3.55
2022-08-02T13:18:03.224Z,4.20
2022-08-02T13:20:33.600Z,4.88
2022-08-02T13:23:04.434Z,4.18
2022-08-02T13:25:34.923Z,3.60
2022-08-02T13:28:04.671Z,3.25
2022-08-02T13:30:32.644Z,3.33
2022-08-02T13:33:01.380Z,3.72
2022-08-02T13:35:29.552Z,3.17
2022-08-02T13:37:57.588Z,3.30
2022-08-02T13:40:26.615Z,3.20
2022-08-02T13:42:55.813Z,3.05
2022-08-02T13:45:25.480Z,2.90
2022-08-02T13:47:57.590Z,3.10
2022-08-02T13:50:33.841Z,2.83
2022-08-02T13:53:01.782Z,3.63
2022-08-02T13:55:29.768Z,3.45
2022-08-02T13:57:58.213Z,4.03
2022-08-02T14:00:35.224Z,5.10
2022-08-02T14:03:05.920Z,4.85
2022-08-02T14:05:39.254Z,4.25
2022-08-02T14:08:17.012Z,5.50
2022-08-02T14:10:45.977Z,5.70
2022-08-02T14:13:13.954Z,5.75
2022-08-02T14:15:43.812Z,4.95
2022-08-02T14:18:11.735Z,5.40
2022-08-02T14:20:39.662Z,4.28
2022-08-02T14:23:08.126Z,3.60
2022-08-02T14:25:36.424Z,3.65
2022-08-02T14:28:04.993Z,3.75
2022-08-02T14:30:34.524Z,3.83
2022-08-02T14:33:05.028Z,3.85
2022-08-02T14:35:33.441Z,3.92
2022-08-02T14:38:01.419Z,3.72
2022-08-02T14:40:31.460Z,4.90
2022-08-02T14:43:02.892Z,4.80
2022-08-02T14:45:39.868Z,4.63
2022-08-02T14:48:13.771Z,6.10
2022-08-02T14:50:45.263Z,5.32
2022-08-02T14:53:14.762Z,6.60
2022-08-02T14:55:43.834Z,6.60
2022-08-02T14:58:14.447Z,6.20
2022-08-02T15:00:46.038Z,5.88
2022-08-02T15:03:19.322Z,5.55
2022-08-02T15:05:47.783Z,6.70
2022-08-02T15:08:19.395Z,5.75
2022-08-02T15:10:48.093Z,5.20
2022-08-02T15:13:18.776Z,5.90
2022-08-02T15:15:49.179Z,5.25
2022-08-02T15:18:23.778Z,5.28
2022-08-02T15:20:57.866Z,5.43
2022-08-02T15:26:10.861Z,3.97
2022-08-02T15:28:42.430Z,3.43
2022-08-02T15:31:11.417Z,3.50
2022-08-02T15:33:51.990Z,4.30
2022-08-02T15:36:22.120Z,2.80
2022-08-02T15:38:50.194Z,2.83
2022-08-02T15:41:19.599Z,2.90
2022-08-02T15:44:00.953Z,3.05
2022-08-02T15:46:32.274Z,2.72
2022-08-02T15:49:02.176Z,3.38
2022-08-02T15:51:30.308Z,2.70
2022-08-02T15:53:58.334Z,3.75
2022-08-02T15:56:26.796Z,2.63
2022-08-02T15:58:56.100Z,2.75
2022-08-02T16:01:37.062Z,2.88
2022-08-02T16:04:08.887Z,3.20
2022-08-02T16:06:37.785Z,3.47
2022-08-02T16:09:06.050Z,3.65
2022-08-02T16:11:34.121Z,3.03
2022-08-02T16:14:02.178Z,2.97
2022-08-02T16:16:32.014Z,2.55
2022-08-02T16:19:47.880Z,2.60
2022-08-02T16:21:50.704Z,2.08
2022-08-02T16:24:18.814Z,2.60
2022-08-02T16:26:47.086Z,1.83
2022-08-02T16:29:19.068Z,2.28
2022-08-02T16:31:47.586Z,1.88
2022-08-02T16:34:17.375Z,2.58
2022-08-02T16:36:48.626Z,2.25
2022-08-02T16:39:18.544Z,2.10
2022-08-02T16:41:51.702Z,2.30
2022-08-02T16:44:29.103Z,2.45
2022-08-02T16:47:02.337Z,2.00
2022-08-02T16:50:06.923Z,2.72
2022-08-02T16:52:33.118Z,2.33
2022-08-02T16:55:10.917Z,2.22
2022-08-02T16:57:45.337Z,2.45
2022-08-02T17:00:20.963Z,2.15
2022-08-02T17:02:51.312Z,2.10
2022-08-02T17:05:22.353Z,2.17
2022-08-02T17:08:08.500Z,2.30
2022-08-02T17:10:46.508Z,2.20
2022-08-02T17:13:17.358Z,2.25
2022-08-02T17:16:16.347Z,2.58
2022-08-02T17:18:42.807Z,2.17
2022-08-02T17:21:14.835Z,2.20
2022-08-02T17:24:05.538Z,2.47
2022-08-02T17:26:39.133Z,2.15
2022-08-02T17:29:15.726Z,1.85
2022-08-02T17:32:12.855Z,2.40
2022-08-02T17:34:40.600Z,2.30
2022-08-02T17:37:28.333Z,2.30
2022-08-02T17:40:00.214Z,2.22
2022-08-02T17:42:33.843Z,2.33
2022-08-02T17:45:06.960Z,2.30
2022-08-02T17:48:04.288Z,2.45
2022-08-02T17:50:36.764Z,2.25
2022-08-02T17:53:06.942Z,2.28
2022-08-02T17:55:42.292Z,2.05
2022-08-02T17:58:15.300Z,1.90
2022-08-02T18:00:46.045Z,2.33
2022-08-02T18:03:18.178Z,2.47
2022-08-02T18:05:53.368Z,1.90
2022-08-02T18:08:25.844Z,3.05
2022-08-02T18:10:55.919Z,2.28
2022-08-02T18:13:32.736Z,2.58
2022-08-02T18:16:01.678Z,2.78
2022-08-02T18:18:32.025Z,2.40
2022-08-02T18:21:15.364Z,2.33
2022-08-02T18:23:49.548Z,2.58
2022-08-02T18:26:31.441Z,2.25
2022-08-02T18:29:05.844Z,2.60
2022-08-02T18:31:39.632Z,2.60
2022-08-02T18:34:08.832Z,2.40
2022-08-02T18:36:36.852Z,2.72
2022-08-02T18:39:15.412Z,2.33
2022-08-02T18:41:45.127Z,4.18
2022-08-02T18:44:18.637Z,3.28
2022-08-02T18:46:46.916Z,3.38
2022-08-02T18:49:17.493Z,2.80
2022-08-02T18:51:45.767Z,2.17
2022-08-02T18:54:15.033Z,2.47
2022-08-02T18:56:47.142Z,2.78
2022-08-02T18:59:18.032Z,1.98
2022-08-02T19:01:50.538Z,3.13
2022-08-02T19:04:27.073Z,2.50
2022-08-02T19:07:01.730Z,3.75
2022-08-02T19:09:35.607Z,2.10
2022-08-02T19:12:04.481Z,2.40
2022-08-02T19:14:33.936Z,2.58
2022-08-02T19:17:15.990Z,2.45
2022-08-02T19:19:51.191Z,2.67
2022-08-02T19:22:20.470Z,2.65
2022-08-02T19:24:51.715Z,2.95
2022-08-02T19:27:25.939Z,2.15
2022-08-02T19:30:02.937Z,2.55
2022-08-02T19:32:41.502Z,2.85
2022-08-02T19:35:29.991Z,2.42
2022-08-02T19:38:10.398Z,2.70
2022-08-02T19:40:43.576Z,3.25
2022-08-02T19:44:24.371Z,3.58
2022-08-02T19:46:07.781Z,3.42
2022-08-02T19:48:47.364Z,2.25
2022-08-02T19:51:17.343Z,2.33
2022-08-02T19:54:10.962Z,2.83
2022-08-02T19:56:43.193Z,2.80
2022-08-02T19:59:14.419Z,2.45
2022-08-02T20:01:48.635Z,2.72
2022-08-02T20:04:23.419Z,2.75
2022-08-02T20:06:55.617Z,2.55
2022-08-02T20:09:33.473Z,2.40
2022-08-02T20:12:18.997Z,2.58
2022-08-02T20:14:52.770Z,2.58
2022-08-02T20:17:28.635Z,2.75
2022-08-02T20:20:01.928Z,2.10
2022-08-02T20:22:34.258Z,2.65
2022-08-02T20:25:08.310Z,2.80
2022-08-02T20:27:38.437Z,2.72
2022-08-02T20:33:20.989Z,3.70
2022-08-02T20:35:47.744Z,3.28
2022-08-02T20:38:15.759Z,3.08
2022-08-02T20:40:44.342Z,2.90
2022-08-02T20:43:12.302Z,2.92
2022-08-02T20:45:41.817Z,2.83
2022-08-02T20:48:11.114Z,2.42
2022-08-02T20:50:54.159Z,2.95
2022-08-02T20:53:25.976Z,2.80
2022-08-02T20:55:58.356Z,1.98
2022-08-02T20:58:27.824Z,3.33
2022-08-02T21:00:59.192Z,2.20
2022-08-02T21:03:39.276Z,2.13
2022-08-02T21:06:09.422Z,2.13
2022-08-02T21:08:38.223Z,2.45
2022-08-02T21:11:09.536Z,2.30
2022-08-02T21:13:46.393Z,2.63
2022-08-02T21:16:19.180Z,2.33
2022-08-02T21:18:55.791Z,2.47
2022-08-02T21:21:28.477Z,2.97
2022-08-02T21:23:59.175Z,2.42
2022-08-02T21:26:30.725Z,2.05
2022-08-02T21:29:03.483Z,2.42
2022-08-02T21:31:33.523Z,2.53
2022-08-02T21:34:22.090Z,2.47
2022-08-02T21:36:55.260Z,2.40
2022-08-02T21:39:23.812Z,2.30
2022-08-02T21:41:51.925Z,2.95
2022-08-02T21:44:22.877Z,2.38
2022-08-02T21:46:54.052Z,1.85
2022-08-02T21:49:27.200Z,2.33
2022-08-02T21:52:09.626Z,2.60
2022-08-02T21:54:40.473Z,2.30
2022-08-02T21:57:15.631Z,2.40
2022-08-02T21:59:45.326Z,2.67
2022-08-02T22:02:14.461Z,2.22
2022-08-02T22:04:47.769Z,2.35
2022-08-02T22:09:46.013Z,2.47
2022-08-02T22:12:17.643Z,2.33
2022-08-02T22:14:54.263Z,2.73
2022-08-02T22:17:51.542Z,2.33
2022-08-02T22:20:18.335Z,2.85
2022-08-02T22:22:50.240Z,2.50
2022-08-02T22:25:27.318Z,2.38
2022-08-02T22:28:36.225Z,2.95
2022-08-02T22:30:57.082Z,3.53
2022-08-02T22:33:47.182Z,2.10
2022-08-02T22:36:30.250Z,2.63
2022-08-02T22:38:58.431Z,2.30
2022-08-02T22:42:01.611Z,2.83
2022-08-02T22:44:14.630Z,2.80
2022-08-02T22:46:43.279Z,2.10
2022-08-02T22:49:17.544Z,3.30
2022-08-02T22:52:00.951Z,1.70
2022-08-02T22:54:30.363Z,2.42
2022-08-02T22:56:59.985Z,2.10
2022-08-02T22:59:39.063Z,2.20
2022-08-02T23:02:08.234Z,3.05
2022-08-02T23:04:36.620Z,2.00
2022-08-02T23:07:06.073Z,2.45
2022-08-02T23:09:34.086Z,2.88
2022-08-02T23:12:02.064Z,2.33
2022-08-02T23:14:30.013Z,2.50
2022-08-02T23:17:15.698Z,2.35
2022-08-02T23:19:52.702Z,2.50
2022-08-02T23:22:29.552Z,2.53
2022-08-02T23:25:00.952Z,2.40
2022-08-02T23:27:28.940Z,2.72
2022-08-02T23:29:57.245Z,2.33
2022-08-02T23:32:30.009Z,2.95
2022-08-02T23:34:59.692Z,2.45
2022-08-02T23:37:31.885Z,2.45
2022-08-02T23:40:39.881Z,1.98
2022-08-02T23:43:12.460Z,2.70
2022-08-02T23:45:44.460Z,2.15
2022-08-02T23:48:14.094Z,2.47
2022-08-02T23:50:42.771Z,2.17
2022-08-02T23:53:12.314Z,2.00
2022-08-02T23:55:40.518Z,2.30
2022-08-02T23:58:08.579Z,2.03
